createdAt,value
2019-01-23T00:00:56.638Z,-4.00
2019-01-23T00:05:02.995Z,-4.00
2019-01-23T00:09:10.400Z,-3.90
2019-01-23T00:13:16.719Z,-3.90
2019-01-23T00:17:23.104Z,-3.90
2019-01-23T00:21:29.379Z,-4.10
2019-01-23T00:25:35.839Z,-4.00
2019-01-23T00:29:43.274Z,-4.00
2019-01-23T00:33:49.690Z,-4.10
2019-01-23T00:37:55.930Z,-4.00
2019-01-23T00:42:02.956Z,-3.90
2019-01-23T00:46:10.330Z,-3.80
2019-01-23T00:50:16.686Z,-3.60
2019-01-23T00:54:24.166Z,-3.60
2019-01-23T00:58:31.270Z,-3.50
2019-01-23T01:02:37.677Z,-3.40
2019-01-23T01:06:44.046Z,-3.60
2019-01-23T01:10:53.163Z,-3.50
2019-01-23T01:15:00.592Z,-3.50
2019-01-23T01:19:06.882Z,-3.20
2019-01-23T01:23:13.549Z,-3.50
2019-01-23T01:27:19.825Z,-3.40
2019-01-23T01:31:27.439Z,-3.50
2019-01-23T01:35:33.810Z,-3.40
2019-01-23T01:39:40.139Z,-3.40
2019-01-23T01:43:46.539Z,-3.50
2019-01-23T01:47:53.387Z,-3.40
2019-01-23T01:51:59.683Z,-3.30
2019-01-23T01:56:06.993Z,-3.30
2019-01-23T02:00:23.552Z,-3.30
2019-01-23T02:04:30.504Z,-3.30
2019-01-23T02:08:36.852Z,-3.10
2019-01-23T02:12:43.366Z,-3.10
2019-01-23T02:16:49.752Z,-3.30
2019-01-23T02:20:57.465Z,-3.30
2019-01-23T02:25:04.001Z,-3.40
2019-01-23T02:29:10.430Z,-3.40
2019-01-23T02:33:16.724Z,-3.40
2019-01-23T02:37:23.826Z,-3.40
2019-01-23T02:41:30.225Z,-3.30
2019-01-23T02:45:36.761Z,-3.30
2019-01-23T02:49:43.193Z,-2.40
2019-01-23T02:53:51.214Z,-3.10
2019-01-23T02:57:59.058Z,-2.90
2019-01-23T03:02:05.890Z,-2.90
2019-01-23T03:06:12.197Z,-2.70
2019-01-23T03:10:21.481Z,-2.80
2019-01-23T03:14:27.807Z,-3.00
2019-01-23T03:18:34.535Z,-2.90
2019-01-23T03:22:40.856Z,-2.80
2019-01-23T03:26:48.198Z,-2.80
2019-01-23T03:30:54.493Z,-2.90
2019-01-23T03:35:00.811Z,-2.80
2019-01-23T03:39:08.274Z,-2.80
2019-01-23T03:43:15.572Z,-2.70
2019-01-23T03:47:21.960Z,-2.70
2019-01-23T03:51:31.773Z,-2.70
2019-01-23T03:55:38.073Z,-2.70
2019-01-23T03:59:46.592Z,-2.80
2019-01-23T04:03:52.936Z,-2.70
2019-01-23T04:07:59.312Z,-2.80
2019-01-23T04:12:05.750Z,-2.60
2019-01-23T04:16:12.742Z,-0.90
2019-01-23T04:20:20.996Z,-2.70
2019-01-23T04:24:27.456Z,-2.70
2019-01-23T04:28:33.729Z,-2.70
2019-01-23T04:32:41.323Z,-2.90
2019-01-23T04:36:47.637Z,-3.00
2019-01-23T04:40:53.974Z,-3.00
2019-01-23T04:45:00.249Z,-2.80
2019-01-23T04:49:07.660Z,-2.80
2019-01-23T04:53:19.285Z,-2.70
2019-01-23T04:57:25.657Z,-2.70
2019-01-23T05:01:32.914Z,-2.70
2019-01-23T05:05:40.703Z,-2.80
2019-01-23T05:09:47.038Z,-2.70
2019-01-23T05:13:53.386Z,-2.80
2019-01-23T05:17:59.738Z,-2.80
2019-01-23T05:22:06.533Z,-2.80
2019-01-23T05:26:13.021Z,-2.90
2019-01-23T05:30:24.053Z,-2.80
2019-01-23T05:34:30.312Z,-2.90
2019-01-23T05:38:39.237Z,-2.90
2019-01-23T05:42:46.528Z,-2.90
2019-01-23T05:46:53.031Z,-2.70
2019-01-23T05:50:59.355Z,-2.80
2019-01-23T05:55:07.279Z,-2.80
2019-01-23T05:59:13.724Z,-2.80
2019-01-23T06:03:21.229Z,-2.70
2019-01-23T06:07:27.711Z,-2.80
2019-01-23T06:11:35.769Z,-2.80
2019-01-23T06:15:42.228Z,-2.70
2019-01-23T06:19:48.675Z,-2.80
2019-01-23T06:23:55.054Z,-2.80
2019-01-23T06:28:02.095Z,-2.80
2019-01-23T06:32:08.498Z,-2.70
2019-01-23T06:36:14.833Z,-2.70
2019-01-23T06:40:21.258Z,-2.80
2019-01-23T06:44:28.216Z,-2.80
2019-01-23T06:48:34.536Z,-2.90
2019-01-23T06:52:41.231Z,-2.80
2019-01-23T06:56:47.563Z,-2.70
2019-01-23T07:00:54.492Z,-2.80
2019-01-23T07:05:01.290Z,-2.90
2019-01-23T07:09:09.647Z,-3.10
2019-01-23T07:13:16.086Z,-3.00
2019-01-23T07:17:24.104Z,-2.90
2019-01-23T07:21:30.473Z,-2.80
2019-01-23T07:25:37.136Z,-3.00
2019-01-23T07:30:05.494Z,-2.90
2019-01-23T07:35:02.786Z,-2.90
2019-01-23T07:39:12.398Z,-2.60
2019-01-23T07:43:18.772Z,-2.70
2019-01-23T07:47:25.180Z,-2.80
2019-01-23T07:56:13.319Z,-2.60
2019-01-23T08:00:24.115Z,-2.50
2019-01-23T08:04:31.091Z,-2.40
2019-01-23T08:08:42.202Z,-2.30
2019-01-23T08:12:48.566Z,-2.40
2019-01-23T08:16:54.942Z,-2.30
2019-01-23T08:25:24.799Z,-2.30
2019-01-23T08:29:32.895Z,-2.00
2019-01-23T08:33:41.422Z,-1.70
2019-01-23T08:37:47.937Z,-1.80
2019-01-23T08:41:57.331Z,-1.70
2019-01-23T08:46:08.579Z,-1.70
2019-01-23T08:50:21.737Z,-1.70
2019-01-23T08:54:28.491Z,-1.90
2019-01-23T08:58:36.326Z,-1.90
2019-01-23T09:02:44.154Z,-2.00
2019-01-23T09:06:50.744Z,-2.30
2019-01-23T09:10:57.146Z,-1.70
2019-01-23T09:15:04.588Z,-1.90
2019-01-23T09:19:11.202Z,-1.60
2019-01-23T09:23:17.997Z,-1.60
2019-01-23T09:27:25.690Z,-1.50
2019-01-23T09:32:14.474Z,-1.50
2019-01-23T09:36:49.042Z,-1.40
2019-01-23T09:41:11.927Z,-1.40
2019-01-23T09:46:07.116Z,-1.30
2019-01-23T09:50:35.389Z,-1.30
2019-01-23T09:54:42.381Z,-1.40
2019-01-23T09:58:49.483Z,-1.60
2019-01-23T10:02:56.626Z,-1.20
2019-01-23T10:07:03.992Z,-1.20
2019-01-23T10:11:13.092Z,-1.30
2019-01-23T10:15:29.360Z,-1.20
2019-01-23T10:19:37.856Z,-1.20
2019-01-23T10:23:47.695Z,-1.30
2019-01-23T10:27:54.696Z,-1.40
2019-01-23T10:32:01.503Z,-1.40
2019-01-23T10:36:08.589Z,-1.40
2019-01-23T10:40:18.100Z,-1.00
2019-01-23T10:44:24.867Z,-1.50
2019-01-23T10:48:37.963Z,-1.60
2019-01-23T10:52:40.515Z,-1.70
2019-01-23T10:56:48.043Z,-1.60
2019-01-23T11:01:00.155Z,-1.50
2019-01-23T11:05:08.820Z,-1.10
2019-01-23T11:09:15.762Z,-1.40
2019-01-23T11:13:23.290Z,-1.80
2019-01-23T11:17:30.199Z,-2.00
2019-01-23T11:21:47.206Z,-1.90
2019-01-23T11:25:55.848Z,-1.70
2019-01-23T11:30:02.819Z,-1.70
2019-01-23T11:34:09.736Z,-1.60
2019-01-23T11:38:17.051Z,-1.60
2019-01-23T11:42:25.563Z,-1.50
2019-01-23T11:46:32.456Z,-1.30
2019-01-23T11:50:39.314Z,-1.60
2019-01-23T11:54:48.096Z,-1.50
2019-01-23T11:58:55.048Z,-1.60
2019-01-23T12:03:02.704Z,-1.50
2019-01-23T12:07:10.765Z,-1.50
2019-01-23T12:11:17.664Z,-1.30
2019-01-23T12:15:25.085Z,-1.20
2019-01-23T12:19:31.817Z,-0.90
2019-01-23T12:23:40.269Z,-0.80
2019-01-23T12:27:48.392Z,-0.80
2019-01-23T12:31:55.323Z,-0.90
2019-01-23T12:36:05.353Z,-0.80
2019-01-23T12:40:15.371Z,-1.00
2019-01-23T12:44:22.773Z,-1.10
2019-01-23T12:48:29.407Z,-1.00
2019-01-23T12:52:36.262Z,-1.00
2019-01-23T12:56:42.912Z,-0.80
2019-01-23T13:00:49.780Z,-0.80
2019-01-23T13:04:56.704Z,-0.80
2019-01-23T13:09:09.754Z,-0.80
2019-01-23T13:13:16.466Z,-0.90
2019-01-23T13:17:23.380Z,-0.90
2019-01-23T13:21:30.375Z,-1.10
2019-01-23T13:25:38.680Z,-1.50
2019-01-23T13:29:47.462Z,-1.70
2019-01-23T13:33:57.983Z,1.20
2019-01-23T13:38:08.388Z,-1.70
2019-01-23T13:42:16.434Z,-1.60
2019-01-23T13:46:23.497Z,-1.50
2019-01-23T13:50:30.487Z,-1.10
2019-01-23T13:54:37.466Z,-1.30
2019-01-23T13:58:45.526Z,-1.10
2019-01-23T14:02:52.127Z,-1.00
2019-01-23T14:06:59.094Z,-1.00
2019-01-23T14:11:07.661Z,-1.10
2019-01-23T14:15:19.411Z,-1.50
2019-01-23T14:19:26.092Z,-1.80
2019-01-23T14:23:33.232Z,-2.10
2019-01-23T14:27:39.885Z,-2.30
2019-01-23T14:31:48.860Z,-2.30
2019-01-23T14:35:55.907Z,-2.30
2019-01-23T14:40:02.939Z,-2.30
2019-01-23T14:44:12.988Z,-2.20
2019-01-23T14:48:21.236Z,-2.30
2019-01-23T14:52:28.061Z,-2.60
2019-01-23T14:56:34.943Z,-2.70
2019-01-23T15:00:42.699Z,-2.70
2019-01-23T15:04:50.348Z,-2.80
2019-01-23T15:08:57.186Z,-2.80
2019-01-23T15:13:04.933Z,-2.70
2019-01-23T15:17:14.567Z,-2.80
2019-01-23T15:21:21.973Z,-2.80
2019-01-23T15:25:29.213Z,-2.90
2019-01-23T15:29:36.076Z,-2.90
2019-01-23T15:33:44.855Z,-3.00
2019-01-23T15:37:52.519Z,-3.10
2019-01-23T15:42:00.631Z,-3.20
2019-01-23T15:46:07.731Z,-3.20
2019-01-23T15:50:17.278Z,-3.20
2019-01-23T15:54:24.478Z,-3.30
2019-01-23T15:58:32.633Z,-3.30
2019-01-23T16:02:40.019Z,-3.30
2019-01-23T16:06:46.994Z,-3.60
2019-01-23T16:10:57.357Z,-3.60
2019-01-23T16:15:04.654Z,-3.50
2019-01-23T16:19:11.615Z,-3.70
2019-01-23T16:23:18.598Z,-3.70
2019-01-23T16:27:26.252Z,-3.80
2019-01-23T16:31:33.322Z,-3.80
2019-01-23T16:35:40.859Z,-3.70
2019-01-23T16:39:48.017Z,-3.70
2019-01-23T16:43:55.732Z,-3.80
2019-01-23T16:48:02.722Z,-3.90
2019-01-23T16:52:11.783Z,-3.90
2019-01-23T16:56:23.702Z,-3.90
2019-01-23T17:00:32.779Z,-4.10
2019-01-23T17:04:39.759Z,-4.10
2019-01-23T17:08:53.368Z,-4.20
2019-01-23T17:13:00.556Z,-4.20
2019-01-23T17:17:08.295Z,-4.30
2019-01-23T17:21:15.192Z,-2.50
2019-01-23T17:25:24.643Z,-4.40
2019-01-23T17:29:31.381Z,-4.30
2019-01-23T17:33:38.319Z,-4.20
2019-01-23T17:37:45.958Z,-4.40
2019-01-23T17:41:54.157Z,-4.30
2019-01-23T17:46:04.965Z,-4.40
2019-01-23T17:50:13.707Z,-7.50
2019-01-23T17:54:20.455Z,-4.60
2019-01-23T17:58:27.045Z,-4.50
2019-01-23T18:02:36.034Z,-4.40
2019-01-23T18:06:43.625Z,-4.40
2019-01-23T18:10:50.277Z,-4.40
2019-01-23T18:14:56.892Z,-4.40
2019-01-23T18:19:03.931Z,-4.40
2019-01-23T18:23:11.619Z,-4.40
2019-01-23T18:27:18.550Z,-4.40
2019-01-23T18:31:52.789Z,-4.50
2019-01-23T18:36:35.732Z,-4.20
2019-01-23T18:41:31.824Z,-4.30
2019-01-23T18:45:56.074Z,-4.10
2019-01-23T18:50:48.350Z,-4.30
2019-01-23T18:54:56.941Z,-4.30
2019-01-23T18:59:05.823Z,-4.40
2019-01-23T19:03:12.737Z,-4.30
2019-01-23T19:07:19.630Z,-4.10
2019-01-23T19:11:26.340Z,-4.20
2019-01-23T19:15:35.367Z,-4.10
2019-01-23T19:19:41.828Z,-3.90
2019-01-23T19:23:48.569Z,-3.70
2019-01-23T19:27:55.077Z,-3.70
2019-01-23T19:32:02.191Z,-3.80
2019-01-23T19:36:08.975Z,-3.80
2019-01-23T19:40:16.132Z,-3.80
2019-01-23T19:44:26.586Z,-4.00
2019-01-23T19:48:36.164Z,-4.10
2019-01-23T19:52:42.837Z,-4.00
2019-01-23T19:56:49.437Z,-4.10
2019-01-23T20:00:55.915Z,-4.10
2019-01-23T20:05:07.202Z,-3.50
2019-01-23T20:09:14.059Z,-4.00
2019-01-23T20:13:22.136Z,-4.00
2019-01-23T20:17:34.397Z,-3.90
2019-01-23T20:21:41.991Z,-4.00
2019-01-23T20:25:49.874Z,-3.80
2019-01-23T20:29:56.496Z,-4.00
2019-01-23T20:34:04.097Z,-4.10
2019-01-23T20:38:12.825Z,-4.10
2019-01-23T20:42:19.726Z,-3.90
2019-01-23T20:46:26.603Z,-4.00
2019-01-23T20:50:33.881Z,-4.00
2019-01-23T20:54:41.121Z,-4.00
2019-01-23T20:58:50.374Z,-3.90
2019-01-23T21:03:00.208Z,-3.90
2019-01-23T21:07:06.762Z,-3.90
2019-01-23T21:11:13.924Z,-3.90
2019-01-23T21:15:23.097Z,-3.80
2019-01-23T21:19:29.934Z,-3.90
2019-01-23T21:23:36.613Z,-3.70
2019-01-23T21:27:45.242Z,-3.80
2019-01-23T21:31:51.689Z,-3.70
2019-01-23T21:35:59.944Z,-3.80
2019-01-23T21:40:10.368Z,-3.80
2019-01-23T21:44:18.306Z,-4.00
2019-01-23T21:48:25.355Z,-4.00
2019-01-23T21:52:32.953Z,-4.00
2019-01-23T21:56:39.786Z,-3.90
2019-01-23T22:00:55.750Z,-3.70
2019-01-23T22:05:02.231Z,-3.70
2019-01-23T22:09:09.874Z,-3.60
2019-01-23T22:13:17.025Z,-3.60
2019-01-23T22:17:24.227Z,-3.50
2019-01-23T22:21:30.808Z,-3.50
2019-01-23T22:25:37.635Z,-3.50
2019-01-23T22:29:44.209Z,-3.50
2019-01-23T22:33:56.291Z,-3.70
2019-01-23T22:38:01.356Z,-3.70
2019-01-23T22:42:08.220Z,-3.70
2019-01-23T22:46:14.715Z,-3.80
2019-01-23T22:50:25.063Z,-3.80
2019-01-23T22:54:31.988Z,-3.70
2019-01-23T22:58:38.781Z,-3.60
2019-01-23T23:02:45.487Z,-3.40
2019-01-23T23:06:52.221Z,-3.60
2019-01-23T23:10:58.871Z,-3.80
2019-01-23T23:15:06.094Z,-3.80
2019-01-23T23:19:12.713Z,-3.60
2019-01-23T23:23:20.062Z,-3.80
2019-01-23T23:27:26.591Z,-3.80
2019-01-23T23:31:36.219Z,-3.90
2019-01-23T23:35:45.667Z,-4.00
2019-01-23T23:39:53.811Z,-3.90
2019-01-23T23:44:00.723Z,-4.00
2019-01-23T23:48:07.408Z,-4.00
2019-01-23T23:52:14.941Z,-3.50
2019-01-23T23:56:22.076Z,-3.70
